Time;durP1;ratioP1;P1;durP2;ratioP2;P2;SDS_P1;SDS_P2;PMS_P1;PMS_P2;Temp;Humidity;BMP_temperature;BMP_pressure;BME280_temperature;BME280_humidity;BME280_pressure;Samples;Min_cycle;Max_cycle;Signal;HPM_P1;HPM_P2
2021/01/19 00:01:16;;;;;;;7.00;3.97;;;5.90;92.40;;;;;;6301296;22;20030;-77
2021/01/19 00:03:42;;;;;;;8.15;5.32;;;5.90;92.40;;;;;;6278539;22;20415;-78
2021/01/19 00:06:07;;;;;;;7.20;4.20;;;5.90;92.40;;;;;;6278703;22;20022;-79
2021/01/19 00:08:33;;;;;;;6.43;4.18;;;5.90;92.30;;;;;;6276610;22;20522;-79
2021/01/19 00:11:01;;;;;;;7.70;4.57;;;6.00;92.40;;;;;;6277809;22;20058;-79
2021/01/19 00:13:28;;;;;;;6.57;3.63;;;6.00;92.40;;;;;;6306236;22;20015;-77
2021/01/19 00:15:53;;;;;;;6.18;3.72;;;5.90;92.30;;;;;;6250911;22;20019;-78
2021/01/19 00:18:19;;;;;;;9.43;4.55;;;5.90;92.30;;;;;;6277156;22;20085;-76
2021/01/19 00:20:45;;;;;;;7.65;4.13;;;5.90;92.30;;;;;;6307185;22;20003;-79
2021/01/19 00:23:12;;;;;;;6.70;4.10;;;5.90;92.30;;;;;;6268831;22;20004;-77
2021/01/19 00:25:39;;;;;;;5.80;3.85;;;5.90;92.30;;;;;;6305771;22;20013;-78
2021/01/19 00:28:06;;;;;;;6.95;3.67;;;5.90;92.30;;;;;;6308550;22;20057;-77
2021/01/19 00:30:31;;;;;;;5.40;3.28;;;5.90;92.30;;;;;;6306920;22;20038;-77
2021/01/19 00:32:57;;;;;;;6.07;3.35;;;5.80;92.30;;;;;;6280049;22;20007;-79
2021/01/19 00:35:23;;;;;;;6.85;3.60;;;5.90;92.30;;;;;;6283333;22;20007;-78
2021/01/19 00:37:48;;;;;;;4.47;2.83;;;5.90;92.30;;;;;;6307363;22;20372;-78
2021/01/19 00:40:15;;;;;;;5.03;2.80;;;5.80;92.30;;;;;;6306757;22;20021;-79
2021/01/19 00:42:40;;;;;;;5.20;3.10;;;5.80;92.30;;;;;;6308494;22;20007;-78
2021/01/19 00:45:07;;;;;;;4.80;3.10;;;5.90;92.30;;;;;;6307776;22;20488;-77
2021/01/19 00:47:33;;;;;;;6.40;3.20;;;5.80;92.30;;;;;;6307273;22;20332;-77
2021/01/19 00:49:59;;;;;;;6.10;3.05;;;5.80;92.30;;;;;;6306798;22;20003;-76
2021/01/19 00:52:25;;;;;;;4.07;2.75;;;5.80;92.30;;;;;;6306999;22;20388;-78
2021/01/19 00:54:50;;;;;;;6.80;2.88;;;5.80;92.30;;;;;;6307577;22;20014;-78
2021/01/19 00:57:16;;;;;;;5.78;2.50;;;5.80;92.30;;;;;;6308865;22;20019;-78
2021/01/19 00:59:42;;;;;;;4.35;2.50;;;5.80;92.30;;;;;;6280262;22;20014;-77
2021/01/19 01:02:07;;;;;;;4.93;2.13;;;5.80;92.30;;;;;;6306902;22;20087;-78
2021/01/19 01:04:33;;;;;;;4.10;2.25;;;5.70;92.30;;;;;;6306486;22;20486;-77
2021/01/19 01:06:59;;;;;;;4.68;2.03;;;5.80;92.30;;;;;;6279836;22;20007;-79
2021/01/19 01:09:24;;;;;;;4.55;2.00;;;5.80;92.30;;;;;;6291196;22;20102;-78
2021/01/19 01:11:50;;;;;;;4.93;2.20;;;5.80;92.60;;;;;;6253085;22;20012;-78
2021/01/19 01:14:16;;;;;;;4.28;1.90;;;5.80;92.30;;;;;;6305243;22;20007;-77
2021/01/19 01:16:42;;;;;;;3.60;2.00;;;5.80;92.30;;;;;;6279137;22;20011;-75
2021/01/19 01:19:09;;;;;;;3.83;1.52;;;5.70;92.30;;;;;;6307259;22;20011;-78
2021/01/19 01:21:38;;;;;;;3.88;1.90;;;5.80;92.30;;;;;;6310655;22;20088;-78
2021/01/19 01:24:05;;;;;;;3.45;1.52;;;5.80;92.30;;;;;;6306928;22;20002;-78
2021/01/19 01:26:31;;;;;;;2.83;1.60;;;5.80;92.30;;;;;;6305951;22;20064;-78
2021/01/19 01:28:56;;;;;;;4.93;1.83;;;5.80;92.20;;;;;;6310144;22;20319;-78
2021/01/19 01:31:25;;;;;;;3.15;1.50;;;5.80;92.20;;;;;;6318445;22;20564;-79
2021/01/19 01:33:51;;;;;;;4.20;1.60;;;5.70;92.20;;;;;;6308733;22;20011;-79
2021/01/19 01:36:17;;;;;;;3.03;1.23;;;5.80;92.20;;;;;;6308007;22;20011;-79
2021/01/19 01:38:43;;;;;;;4.13;1.77;;;5.80;92.20;;;;;;6281552;22;20014;-78
2021/01/19 01:41:13;;;;;;;6.75;1.95;;;5.70;92.20;;;;;;6308219;22;20346;-77
2021/01/19 01:43:38;;;;;;;2.53;1.55;;;5.70;92.10;;;;;;6307159;22;19999;-79
2021/01/19 01:46:04;;;;;;;4.75;1.90;;;5.70;92.10;;;;;;6256034;22;20409;-79
2021/01/19 01:48:30;;;;;;;5.47;1.70;;;5.80;92.10;;;;;;6309347;22;20011;-78
2021/01/19 01:50:56;;;;;;;3.40;1.48;;;5.70;92.10;;;;;;6280915;22;20014;-77
2021/01/19 01:53:32;;;;;;;3.30;1.42;;;5.70;92.10;;;;;;6255500;22;20014;-83
2021/01/19 01:56:01;;;;;;;2.45;1.50;;;5.70;92.10;;;;;;6282978;22;20004;-83
2021/01/19 01:58:27;;;;;;;2.95;1.60;;;5.70;92.00;;;;;;6235624;22;20033;-79
2021/01/19 02:00:54;;;;;;;2.38;1.30;;;5.70;92.00;;;;;;6252925;22;20106;-81
2021/01/19 02:03:20;;;;;;;4.03;1.33;;;5.70;92.00;;;;;;6279686;22;20014;-79
2021/01/19 02:05:45;;;;;;;3.97;1.30;;;5.70;92.00;;;;;;6254685;22;20007;-79
2021/01/19 02:08:27;;;;;;;3.83;1.40;;;5.60;92.00;;;;;;6260385;22;20451;-81
2021/01/19 02:11:07;;;;;;;3.45;1.15;;;5.60;92.00;;;;;;6290193;22;20007;-80
2021/01/19 02:14:05;;;;;;;2.47;1.30;;;5.60;92.00;;;;;;6264336;22;20010;-82
2021/01/19 02:16:40;;;;;;;2.80;1.10;;;5.60;92.00;;;;;;6290259;22;20013;-79
2021/01/19 02:19:40;;;;;;;3.20;1.20;;;5.60;92.00;;;;;;6255427;22;20004;-80
2021/01/19 02:22:37;;;;;;;4.20;1.10;;;5.60;92.00;;;;;;6252572;22;20007;-79
2021/01/19 02:25:24;;;;;;;1.83;0.93;;;5.60;92.00;;;;;;6306567;22;20334;-79
2021/01/19 02:28:15;;;;;;;1.95;0.80;;;5.60;92.00;;;;;;6278568;22;20018;-79
2021/01/19 02:31:05;;;;;;;3.58;1.05;;;5.60;91.90;;;;;;6306066;22;20014;-81
2021/01/19 02:33:38;;;;;;;1.55;0.95;;;5.70;92.00;;;;;;6256820;22;20015;-79
2021/01/19 02:36:18;;;;;;;3.60;1.20;;;5.80;92.00;;;;;;6276210;22;20042;-78
2021/01/19 02:39:02;;;;;;;2.22;1.15;;;5.60;91.90;;;;;;6276189;22;20000;-79
2021/01/19 02:41:28;;;;;;;2.70;1.10;;;5.60;91.80;;;;;;6249318;22;20058;-78
2021/01/19 02:55:50;;;;;;;3.42;1.33;;;5.60;91.60;;;;;;5172167;27;20138;-76
2021/01/19 02:58:41;;;;;;;4.72;1.40;;;5.70;92.00;;;;;;5132646;27;20494;-76
2021/01/19 03:01:26;;;;;;;2.55;1.30;;;5.70;91.90;;;;;;5152571;27;20117;-76
2021/01/19 03:03:52;;;;;;;3.40;1.20;;;5.70;91.90;;;;;;5150731;27;20043;-76
2021/01/19 03:06:20;;;;;;;2.58;1.38;;;5.60;91.80;;;;;;5151828;27;20042;-79
2021/01/19 03:08:46;;;;;;;3.22;1.40;;;5.60;91.80;;;;;;5151870;27;20088;-79
2021/01/19 03:11:15;;;;;;;6.25;1.60;;;5.50;91.70;;;;;;5132060;27;20042;-79
2021/01/19 03:13:49;;;;;;;4.85;1.50;;;5.50;91.70;;;;;;5133553;27;20127;-79
2021/01/19 03:16:17;;;;;;;5.00;1.60;;;5.50;91.70;;;;;;5152673;27;20064;-79
2021/01/19 03:18:44;;;;;;;4.38;1.48;;;5.50;91.70;;;;;;5134344;27;20038;-78
2021/01/19 03:21:11;;;;;;;1.95;1.20;;;5.50;91.60;;;;;;5152330;27;20054;-79
2021/01/19 03:23:38;;;;;;;3.00;1.20;;;5.40;91.60;;;;;;5152433;27;20069;-79
2021/01/19 03:26:04;;;;;;;2.47;1.20;;;5.40;91.80;;;;;;5134163;27;20042;-78
2021/01/19 03:28:30;;;;;;;5.15;1.58;;;5.40;91.60;;;;;;5154015;27;20066;-79
2021/01/19 03:30:56;;;;;;;4.72;1.75;;;5.40;91.50;;;;;;5153428;27;20030;-79
2021/01/19 03:33:23;;;;;;;3.78;1.52;;;5.40;91.50;;;;;;5156438;27;20121;-79
2021/01/19 03:35:49;;;;;;;4.25;1.65;;;5.40;91.50;;;;;;5154838;27;20038;-79
2021/01/19 03:38:15;;;;;;;3.22;1.40;;;5.30;91.50;;;;;;5154097;27;20053;-79
2021/01/19 03:40:41;;;;;;;6.85;1.90;;;5.20;91.50;;;;;;5152054;27;20035;-79
2021/01/19 03:43:08;;;;;;;5.47;1.88;;;5.20;91.50;;;;;;5117335;27;20066;-79
2021/01/19 03:45:34;;;;;;;5.72;1.60;;;5.20;91.50;;;;;;5152794;27;20059;-79
2021/01/19 03:48:00;;;;;;;5.85;2.40;;;5.20;91.50;;;;;;5152988;27;20185;-80
2021/01/19 03:50:26;;;;;;;4.00;1.80;;;5.20;91.60;;;;;;5133648;27;20031;-80
2021/01/19 03:52:52;;;;;;;4.20;1.75;;;5.20;91.60;;;;;;5151681;27;20057;-80
2021/01/19 03:55:18;;;;;;;4.68;1.88;;;5.10;91.60;;;;;;5146096;27;20102;-80
2021/01/19 03:57:43;;;;;;;4.90;1.83;;;5.10;91.60;;;;;;5137348;28;20126;-80
2021/01/19 04:00:12;;;;;;;4.03;1.40;;;5.10;91.60;;;;;;5135832;28;20527;-79
2021/01/19 04:02:37;;;;;;;2.92;1.40;;;5.10;91.60;;;;;;5135685;28;20096;-80
2021/01/19 04:05:05;;;;;;;4.90;1.30;;;5.10;91.70;;;;;;5118490;28;20482;-80
2021/01/19 04:07:32;;;;;;;6.43;2.00;;;5.00;91.70;;;;;;5137769;28;20035;-81
2021/01/19 04:09:58;;;;;;;3.92;1.98;;;5.10;91.70;;;;;;5118906;28;20043;-81
2021/01/19 04:12:24;;;;;;;5.20;2.10;;;5.00;91.70;;;;;;5117146;28;20091;-81
2021/01/19 04:14:49;;;;;;;5.05;1.83;;;5.00;91.70;;;;;;5101313;28;20398;-81
2021/01/19 04:17:16;;;;;;;3.47;1.60;;;5.00;91.70;;;;;;5140420;28;20099;-81
2021/01/19 04:19:41;;;;;;;6.45;1.95;;;5.00;91.80;;;;;;5142432;28;20447;-81
2021/01/19 04:22:07;;;;;;;3.03;1.65;;;4.90;91.80;;;;;;5137073;28;20064;-82
2021/01/19 04:24:33;;;;;;;3.83;2.10;;;5.00;91.80;;;;;;5119018;28;20138;-82
2021/01/19 04:26:58;;;;;;;4.53;1.80;;;5.00;91.80;;;;;;5117668;28;20039;-82
2021/01/19 04:29:24;;;;;;;4.95;1.90;;;5.00;91.80;;;;;;5135482;28;20395;-80
2021/01/19 04:31:50;;;;;;;5.40;2.05;;;4.90;91.80;;;;;;5117493;28;20037;-80
2021/01/19 04:34:15;;;;;;;4.03;2.08;;;4.90;91.90;;;;;;5118026;28;20096;-81
2021/01/19 04:36:41;;;;;;;5.53;2.10;;;4.90;91.90;;;;;;5118057;28;20092;-80
2021/01/19 04:39:07;;;;;;;4.18;1.92;;;4.90;91.90;;;;;;5117204;28;20474;-83
2021/01/19 04:41:35;;;;;;;3.42;2.00;;;4.90;91.90;;;;;;5122238;28;20045;-81
2021/01/19 04:44:01;;;;;;;5.07;2.10;;;4.90;91.90;;;;;;5138044;28;20039;-82
2021/01/19 04:46:28;;;;;;;3.05;1.90;;;4.90;91.90;;;;;;5138917;28;20043;-80
2021/01/19 04:48:54;;;;;;;4.30;1.88;;;4.90;91.90;;;;;;5136688;28;20043;-82
2021/01/19 04:51:23;;;;;;;4.45;2.38;;;5.00;92.00;;;;;;5136902;28;20047;-83
2021/01/19 04:53:59;;;;;;;3.80;2.30;;;5.00;91.90;;;;;;5136494;28;20039;-80
2021/01/19 04:56:27;;;;;;;4.07;2.00;;;5.00;92.00;;;;;;5137242;28;20486;-80
2021/01/19 04:58:55;;;;;;;4.93;2.33;;;5.00;91.90;;;;;;5117620;28;20490;-79
2021/01/19 05:01:39;;;;;;;4.15;2.15;;;5.00;91.90;;;;;;5120656;28;20085;-81
2021/01/19 05:04:46;;;;;;;4.18;2.20;;;5.00;92.00;;;;;;5140294;28;20043;-79
2021/01/19 05:07:33;;;;;;;3.47;1.90;;;5.00;92.00;;;;;;5122694;28;20035;-77
2021/01/19 05:10:05;;;;;;;4.72;1.88;;;5.00;92.00;;;;;;5141459;28;20471;-82
2021/01/19 05:12:43;;;;;;;3.65;1.83;;;5.00;92.00;;;;;;5135419;28;20046;-81
2021/01/19 05:15:14;;;;;;;4.13;1.80;;;4.90;92.00;;;;;;5119459;28;20380;-79
2021/01/19 05:17:41;;;;;;;3.97;2.00;;;5.00;92.00;;;;;;5122082;28;20065;-78
2021/01/19 05:20:09;;;;;;;4.07;2.10;;;5.00;92.10;;;;;;5137066;28;20070;-80
2021/01/19 05:22:35;;;;;;;3.30;2.20;;;5.00;92.10;;;;;;5138865;28;20046;-81
2021/01/19 05:25:01;;;;;;;3.05;1.75;;;5.00;92.10;;;;;;5105417;28;20039;-79
2021/01/19 05:27:27;;;;;;;4.65;1.98;;;5.00;92.10;;;;;;5119924;28;20039;-78
2021/01/19 05:30:09;;;;;;;4.10;1.80;;;5.00;92.10;;;;;;5139848;28;20068;-79
2021/01/19 05:32:39;;;;;;;3.67;1.85;;;5.00;92.20;;;;;;5122855;28;20039;-79
2021/01/19 05:35:17;;;;;;;3.00;1.58;;;5.00;92.20;;;;;;5144028;28;20479;-77
2021/01/19 05:37:57;;;;;;;2.78;1.58;;;5.00;92.20;;;;;;5136462;28;20597;-80
2021/01/19 05:40:25;;;;;;;3.15;1.60;;;5.00;92.20;;;;;;5141333;28;20111;-80
2021/01/19 05:42:51;;;;;;;2.40;1.52;;;5.00;92.20;;;;;;5122769;28;20107;-81
2021/01/19 05:45:16;;;;;;;4.93;1.92;;;4.90;92.20;;;;;;5120944;28;20054;-77
2021/01/19 05:47:43;;;;;;;3.35;1.60;;;5.00;92.30;;;;;;5126324;28;20043;-78
2021/01/19 05:50:10;;;;;;;2.35;1.55;;;5.00;92.20;;;;;;5142312;28;20039;-81
2021/01/19 05:52:36;;;;;;;2.65;1.70;;;5.10;92.30;;;;;;5145072;28;20047;-78
2021/01/19 05:55:03;;;;;;;2.53;1.55;;;5.10;92.30;;;;;;5122525;28;20092;-78
2021/01/19 05:57:29;;;;;;;2.58;1.63;;;5.10;92.30;;;;;;5142355;28;20087;-77
2021/01/19 05:59:58;;;;;;;3.63;1.60;;;5.10;92.30;;;;;;5136480;28;20225;-77
2021/01/19 06:02:39;;;;;;;3.03;1.70;;;5.10;92.30;;;;;;5140593;28;20039;-78
2021/01/19 06:05:11;;;;;;;5.47;1.90;;;5.10;92.30;;;;;;5116238;28;20047;-78
2021/01/19 06:07:38;;;;;;;2.55;1.70;;;5.20;92.30;;;;;;5114480;28;20040;-76
2021/01/19 06:10:10;;;;;;;1.85;1.40;;;5.20;92.30;;;;;;5116837;28;20114;-77
2021/01/19 06:12:36;;;;;;;;;;;5.20;92.30;;;;;;5136934;28;20459;-77
2021/01/19 06:15:02;;;;;;;3.83;1.58;;;5.30;92.30;;;;;;5119745;28;19946;-77
2021/01/19 06:17:28;;;;;;;2.05;1.50;;;5.20;92.30;;;;;;5134284;28;20104;-78
2021/01/19 06:19:58;;;;;;;2.17;1.63;;;5.20;92.30;;;;;;5117146;28;20035;-77
2021/01/19 06:22:26;;;;;;;2.38;1.42;;;5.30;92.40;;;;;;5119310;28;20384;-78
2021/01/19 06:24:57;;;;;;;3.13;1.50;;;5.20;92.30;;;;;;5138229;28;20043;-77
2021/01/19 06:27:34;;;;;;;2.25;1.45;;;5.30;92.40;;;;;;5141342;28;20035;-80
2021/01/19 06:30:12;;;;;;;2.00;1.45;;;5.30;92.40;;;;;;5134162;28;20039;-78
2021/01/19 06:32:45;;;;;;;1.92;1.20;;;5.30;92.40;;;;;;5133279;28;20391;-78
2021/01/19 06:35:21;;;;;;;2.30;1.70;;;5.30;92.40;;;;;;5115556;28;20039;-79
2021/01/19 06:37:49;;;;;;;2.33;1.27;;;5.40;92.50;;;;;;5134200;28;20046;-79
2021/01/19 06:40:17;;;;;;;1.88;1.27;;;5.40;92.50;;;;;;5135889;28;20019;-77
2021/01/19 06:43:02;;;;;;;1.58;1.20;;;5.40;92.50;;;;;;5140853;28;20039;-78
2021/01/19 06:45:28;;;;;;;1.70;1.20;;;5.50;92.50;;;;;;5118195;28;20039;-77
2021/01/19 06:47:56;;;;;;;2.03;1.25;;;5.40;92.40;;;;;;5134882;28;20118;-79
2021/01/19 06:50:24;;;;;;;2.95;1.38;;;5.40;92.50;;;;;;5119114;28;20522;-78
2021/01/19 06:53:20;;;;;;;1.67;1.25;;;5.50;92.50;;;;;;5127250;28;20110;-78
2021/01/19 06:56:12;;;;;;;1.90;1.27;;;5.50;92.80;;;;;;5139907;28;20039;-78
2021/01/19 06:58:53;;;;;;;2.63;1.30;;;5.50;92.50;;;;;;5087861;28;20039;-78
2021/01/19 07:01:24;;;;;;;2.83;1.20;;;5.50;92.50;;;;;;5136252;28;20031;-77
2021/01/19 07:04:03;;;;;;;2.75;1.30;;;5.50;92.50;;;;;;5137192;28;20055;-78
2021/01/19 07:07:05;;;;;;;2.13;1.30;;;5.50;92.50;;;;;;5135410;28;20031;-78
2021/01/19 07:10:01;;;;;;;2.60;1.30;;;5.60;92.50;;;;;;5133195;28;20035;-79
2021/01/19 07:12:53;;;;;;;2.53;1.33;;;5.60;92.50;;;;;;5133405;28;20540;-78
2021/01/19 07:15:21;;;;;;;1.58;1.48;;;5.60;92.50;;;;;;5134835;28;20043;-79
2021/01/19 07:18:22;;;;;;;2.17;1.40;;;5.60;92.50;;;;;;5135862;28;20058;-78
2021/01/19 07:21:08;;;;;;;3.58;1.67;;;5.60;92.60;;;;;;5137277;28;20456;-78
2021/01/19 07:24:12;;;;;;;2.47;1.60;;;5.60;92.60;;;;;;5133653;28;20035;-78
2021/01/19 07:26:40;;;;;;;2.28;1.50;;;5.70;92.60;;;;;;5135913;28;20039;-79
2021/01/19 07:29:07;;;;;;;2.72;1.50;;;5.80;92.60;;;;;;5136714;28;20043;-79
2021/01/19 07:31:34;;;;;;;2.33;1.40;;;5.70;92.60;;;;;;5137626;27;20098;-78
2021/01/19 07:34:03;;;;;;;2.33;1.50;;;5.70;92.60;;;;;;5137904;28;20122;-78
2021/01/19 07:36:31;;;;;;;2.30;1.40;;;5.80;92.60;;;;;;5139221;28;20050;-80
2021/01/19 07:38:57;;;;;;;1.35;1.05;;;5.80;92.60;;;;;;5118561;28;20126;-79
2021/01/19 07:41:29;;;;;;;1.67;1.10;;;5.80;92.60;;;;;;5136890;28;20076;-78
2021/01/19 07:43:55;;;;;;;4.45;1.50;;;5.80;92.70;;;;;;5138343;28;20379;-79
2021/01/19 07:46:26;;;;;;;2.90;1.50;;;5.80;92.70;;;;;;5119408;28;20031;-77
2021/01/19 07:49:01;;;;;;;1.63;1.20;;;5.90;92.70;;;;;;5139850;28;20040;-81
2021/01/19 07:51:39;;;;;;;2.38;1.40;;;5.90;92.70;;;;;;5138193;28;20092;-78
2021/01/19 07:54:05;;;;;;;2.65;1.20;;;5.90;92.70;;;;;;5140181;28;20042;-78
2021/01/19 07:56:32;;;;;;;1.58;1.10;;;6.00;92.70;;;;;;5117843;28;20445;-81
2021/01/19 07:58:59;;;;;;;1.77;1.13;;;6.00;92.70;;;;;;5138343;28;20043;-79
2021/01/19 08:01:30;;;;;;;1.98;1.27;;;6.00;92.70;;;;;;5136509;28;20035;-78
2021/01/19 08:04:10;;;;;;;1.60;1.05;;;6.00;92.70;;;;;;5136981;28;20549;-78
2021/01/19 08:06:40;;;;;;;2.70;1.00;;;6.00;92.70;;;;;;5118552;28;20043;-79
2021/01/19 08:09:15;;;;;;;2.25;1.30;;;6.10;92.80;;;;;;5140507;28;20431;-78
2021/01/19 08:12:17;;;;;;;1.55;1.20;;;6.30;92.80;;;;;;5103635;28;20047;-81
2021/01/19 08:14:47;;;;;;;1.95;1.17;;;6.00;92.70;;;;;;5138329;28;20402;-81
2021/01/19 08:17:13;;;;;;;1.55;1.00;;;6.20;92.70;;;;;;5118595;28;20051;-81
2021/01/19 08:19:45;;;;;;;1.88;1.35;;;6.20;92.70;;;;;;5118150;28;20047;-81
2021/01/19 08:22:12;;;;;;;1.15;0.98;;;6.20;92.70;;;;;;5102554;28;20135;-81
2021/01/19 08:24:42;;;;;;;1.98;1.00;;;6.20;92.70;;;;;;5119663;28;20058;-79
2021/01/19 08:27:09;;;;;;;1.02;0.98;;;6.10;92.70;;;;;;5100472;28;20036;-77
2021/01/19 08:29:36;;;;;;;0.80;0.70;;;6.20;92.80;;;;;;5121412;28;20043;-80
2021/01/19 08:32:06;;;;;;;2.25;1.02;;;6.20;92.70;;;;;;5124655;28;20082;-78
2021/01/19 08:34:32;;;;;;;2.40;1.08;;;6.20;92.70;;;;;;5094490;28;20531;-80
2021/01/19 08:37:01;;;;;;;1.60;1.05;;;6.30;92.80;;;;;;5078394;28;20507;-79
2021/01/19 08:39:51;;;;;;;1.25;1.10;;;6.30;92.80;;;;;;5078779;28;20492;-81
2021/01/19 08:42:45;;;;;;;1.85;1.20;;;6.40;92.80;;;;;;5036880;28;20052;-81
2021/01/19 08:45:49;;;;;;;1.27;1.10;;;6.40;92.80;;;;;;5021630;28;20030;-81
2021/01/19 08:49:06;;;;;;;1.40;1.10;;;6.50;92.80;;;;;;4962569;28;20108;-83
2021/01/19 08:51:45;;;;;;;2.03;1.20;;;6.50;92.80;;;;;;4981684;28;20050;-81
2021/01/19 08:54:11;;;;;;;2.03;1.25;;;6.50;92.80;;;;;;5007744;28;20047;-81
2021/01/19 08:56:46;;;;;;;2.28;1.15;;;6.60;92.90;;;;;;4991123;28;20097;-80
2021/01/19 08:59:15;;;;;;;3.50;1.20;;;6.50;92.90;;;;;;5006396;28;20105;-80
2021/01/19 09:01:54;;;;;;;2.03;1.08;;;6.50;92.90;;;;;;5007380;28;20496;-78
2021/01/19 09:04:25;;;;;;;2.35;1.35;;;6.40;92.90;;;;;;4991359;28;20538;-81
2021/01/19 09:06:52;;;;;;;0.88;0.80;;;6.50;92.90;;;;;;4977777;28;20053;-80
2021/01/19 09:09:56;;;;;;;2.72;1.10;;;6.50;92.90;;;;;;4982607;28;20050;-81
2021/01/19 09:12:51;;;;;;;2.38;1.20;;;6.60;92.90;;;;;;4992678;28;20049;-81
2021/01/19 09:15:18;;;;;;;2.58;1.27;;;6.70;93.00;;;;;;4976445;28;20047;-79
2021/01/19 09:18:26;;;;;;;1.20;1.10;;;6.60;92.90;;;;;;5001111;28;20046;-81
2021/01/19 09:21:03;;;;;;;2.47;1.15;;;6.70;93.00;;;;;;5040055;28;20068;-82
2021/01/19 09:23:41;;;;;;;2.38;1.00;;;6.60;92.90;;;;;;5031956;28;20041;-81
2021/01/19 09:26:08;;;;;;;1.15;1.00;;;6.70;93.00;;;;;;5036960;28;20041;-78
2021/01/19 09:28:38;;;;;;;2.03;1.20;;;6.70;93.00;;;;;;5007816;28;20469;-78
2021/01/19 09:31:17;;;;;;;1.27;1.00;;;6.70;93.00;;;;;;5005726;28;20124;-81
2021/01/19 09:34:06;;;;;;;2.22;1.10;;;6.70;93.00;;;;;;5004625;28;20049;-82
2021/01/19 09:36:42;;;;;;;2.50;1.30;;;6.80;93.00;;;;;;4995153;28;20081;-81
2021/01/19 09:39:28;;;;;;;3.15;1.42;;;6.90;93.00;;;;;;4971382;28;20047;-77
2021/01/19 09:42:07;;;;;;;1.75;1.33;;;6.90;93.00;;;;;;4949980;28;20047;-83
2021/01/19 09:44:37;;;;;;;1.90;1.30;;;7.00;93.00;;;;;;4950250;28;20124;-80
2021/01/19 09:47:19;;;;;;;3.03;1.50;;;6.90;93.00;;;;;;4921334;29;20051;-81
2021/01/19 09:49:45;;;;;;;1.75;1.33;;;7.00;93.10;;;;;;4887374;29;20583;-78
2021/01/19 09:52:53;;;;;;;1.80;1.40;;;7.00;93.10;;;;;;4887558;29;20040;-84
2021/01/19 09:55:42;;;;;;;2.78;1.50;;;6.90;93.10;;;;;;4896387;29;20425;-82
2021/01/19 09:58:26;;;;;;;2.83;1.50;;;7.00;93.10;;;;;;4934184;29;20051;-79
2021/01/19 10:00:58;;;;;;;2.95;1.40;;;7.00;93.10;;;;;;4920243;29;20472;-79
2021/01/19 10:07:06;;;;;;;2.00;1.10;;;7.10;93.10;;;;;;4883783;29;20063;-79
2021/01/19 10:09:33;;;;;;;1.10;0.95;;;7.20;93.10;;;;;;4933229;29;20043;-79
2021/01/19 10:12:00;;;;;;;1.67;1.30;;;7.20;93.10;;;;;;4933545;29;20043;-77
2021/01/19 10:14:31;;;;;;;2.72;1.50;;;7.20;93.10;;;;;;4933657;29;20051;-81
2021/01/19 10:17:00;;;;;;;2.05;1.40;;;7.20;93.10;;;;;;4933569;29;20353;-79
2021/01/19 10:19:30;;;;;;;2.10;1.30;;;7.40;93.20;;;;;;4934300;29;20655;-79
2021/01/19 10:22:01;;;;;;;1.42;1.20;;;7.30;93.10;;;;;;4933947;29;20178;-81
2021/01/19 10:25:46;;;;;;;1.40;1.25;;;7.30;93.10;;;;;;4950179;28;20050;-80
2021/01/19 10:29:10;;;;;;;1.40;1.30;;;7.50;93.20;;;;;;4998665;28;20129;-78
2021/01/19 10:31:53;;;;;;;1.90;1.40;;;7.50;93.10;;;;;;4968042;29;20035;-85
2021/01/19 10:34:21;;;;;;;1.98;1.40;;;7.50;93.10;;;;;;4964236;28;20047;-81
2021/01/19 10:36:56;;;;;;;2.88;1.77;;;7.50;93.10;;;;;;4920649;29;20550;-80
2021/01/19 10:39:22;;;;;;;1.98;1.45;;;7.60;93.20;;;;;;4925618;29;20043;-77
2021/01/19 10:41:51;;;;;;;2.30;1.50;;;7.60;93.10;;;;;;4958785;29;20067;-79
2021/01/19 10:44:17;;;;;;;2.10;1.70;;;7.60;93.10;;;;;;5044342;28;20046;-78
2021/01/19 10:46:44;;;;;;;2.17;1.50;;;7.80;93.20;;;;;;5053695;28;20045;-77
2021/01/19 10:49:14;;;;;;;2.08;1.65;;;7.80;93.10;;;;;;5051321;28;20087;-76
2021/01/19 10:51:43;;;;;;;2.15;1.65;;;7.90;93.10;;;;;;5063961;28;20095;-77
2021/01/19 10:54:13;;;;;;;2.70;1.55;;;7.90;93.10;;;;;;5060262;28;20520;-77
2021/01/19 10:56:41;;;;;;;2.53;1.83;;;8.00;93.20;;;;;;5063167;28;20033;-77
2021/01/19 10:59:07;;;;;;;2.22;1.80;;;8.00;93.10;;;;;;5062743;28;20175;-78
2021/01/19 11:01:34;;;;;;;2.25;1.80;;;8.10;93.20;;;;;;5017104;28;20123;-79
2021/01/19 11:04:00;;;;;;;2.10;1.60;;;8.10;93.10;;;;;;5049955;28;20724;-78
2021/01/19 11:06:37;;;;;;;2.10;1.65;;;8.10;93.10;;;;;;5057037;28;20068;-80
2021/01/19 11:09:07;;;;;;;1.80;1.42;;;8.20;93.10;;;;;;5089437;28;20052;-80
2021/01/19 11:11:36;;;;;;;1.77;1.23;;;8.20;93.10;;;;;;5082483;28;20086;-80
2021/01/19 11:14:04;;;;;;;2.22;1.40;;;8.30;93.20;;;;;;5079658;28;20074;-78
2021/01/19 11:16:33;;;;;;;2.33;1.60;;;8.40;93.20;;;;;;5079139;28;20036;-78
2021/01/19 11:19:01;;;;;;;2.67;1.80;;;8.50;93.20;;;;;;5077570;28;20036;-79
2021/01/19 11:21:29;;;;;;;2.33;1.60;;;8.60;93.20;;;;;;5098081;28;20040;-79
2021/01/19 11:23:55;;;;;;;2.70;1.40;;;8.60;93.10;;;;;;5065700;28;20040;-77
2021/01/19 11:26:22;;;;;;;1.48;1.20;;;8.70;93.10;;;;;;5096673;28;20491;-80
2021/01/19 11:28:47;;;;;;;2.22;1.50;;;8.80;93.10;;;;;;5096022;28;20051;-79
2021/01/19 11:31:19;;;;;;;1.92;1.30;;;8.80;93.10;;;;;;5097681;28;20043;-77
2021/01/19 11:33:44;;;;;;;3.72;1.33;;;8.90;93.10;;;;;;5084739;28;20044;-80
2021/01/19 11:36:18;;;;;;;2.53;1.60;;;9.00;93.10;;;;;;5080626;28;20115;-76
2021/01/19 11:38:43;;;;;;;2.50;1.52;;;9.00;93.20;;;;;;5081481;28;20052;-80
2021/01/19 11:41:13;;;;;;;3.40;1.92;;;9.00;93.20;;;;;;5139226;28;20058;-78
2021/01/19 11:43:39;;;;;;;3.53;2.08;;;9.00;93.30;;;;;;5124457;28;20039;-78
2021/01/19 11:46:04;;;;;;;4.85;2.10;;;9.10;93.30;;;;;;5128006;28;20046;-77
2021/01/19 11:48:31;;;;;;;3.30;2.17;;;9.10;93.30;;;;;;5144349;28;20031;-76
2021/01/19 11:50:56;;;;;;;2.00;1.58;;;9.10;93.30;;;;;;5136785;28;20040;-77
2021/01/19 11:53:22;;;;;;;2.90;1.70;;;9.10;93.40;;;;;;5136839;28;20469;-78
2021/01/19 11:55:48;;;;;;;2.83;1.92;;;9.10;93.40;;;;;;5136883;28;20073;-75
2021/01/19 11:58:13;;;;;;;2.85;1.85;;;9.10;93.50;;;;;;5135834;28;20039;-75
2021/01/19 12:00:39;;;;;;;2.30;1.70;;;9.20;93.50;;;;;;5136187;28;20073;-79
2021/01/19 12:03:05;;;;;;;2.95;1.80;;;9.20;93.50;;;;;;5142789;28;20478;-76
2021/01/19 12:05:31;;;;;;;3.72;1.90;;;9.30;93.60;;;;;;5140014;28;20050;-79
2021/01/19 12:07:57;;;;;;;3.50;2.00;;;9.30;93.60;;;;;;5105670;28;20043;-79
2021/01/19 12:10:23;;;;;;;3.47;2.25;;;9.30;93.60;;;;;;5121032;28;20110;-82
2021/01/19 12:12:48;;;;;;;3.40;2.00;;;9.20;93.60;;;;;;5083931;28;20043;-80
2021/01/19 12:15:14;;;;;;;3.92;2.05;;;9.30;93.60;;;;;;5119886;28;20043;-77
2021/01/19 12:17:40;;;;;;;3.40;2.00;;;9.30;93.60;;;;;;5117468;28;20039;-78
2021/01/19 12:20:07;;;;;;;3.50;1.83;;;9.40;93.60;;;;;;5137300;28;20050;-77
2021/01/19 12:22:32;;;;;;;3.47;2.00;;;9.40;93.70;;;;;;5117735;28;20514;-80
2021/01/19 12:24:58;;;;;;;3.67;2.30;;;9.40;93.70;;;;;;5083747;28;20039;-77
2021/01/19 12:27:24;;;;;;;4.65;2.78;;;9.50;93.70;;;;;;5117949;28;20122;-80
2021/01/19 12:29:49;;;;;;;4.20;2.92;;;9.50;93.70;;;;;;5101976;28;20027;-81
2021/01/19 12:32:15;;;;;;;7.10;3.00;;;9.50;93.70;;;;;;5118327;28;20039;-78
2021/01/19 12:34:41;;;;;;;5.10;3.05;;;9.60;93.70;;;;;;5117157;28;20520;-79
2021/01/19 12:37:07;;;;;;;5.75;3.22;;;9.60;93.80;;;;;;5118532;28;20031;-80
2021/01/19 12:39:33;;;;;;;6.53;3.65;;;9.60;93.80;;;;;;5135888;28;20454;-79
2021/01/19 12:41:59;;;;;;;7.18;3.40;;;9.60;93.80;;;;;;5135265;28;20042;-78
2021/01/19 12:44:24;;;;;;;4.45;3.03;;;9.60;93.80;;;;;;5118142;28;20043;-79
2021/01/19 12:46:50;;;;;;;5.82;3.50;;;9.70;93.80;;;;;;5100237;28;20035;-75
2021/01/19 12:49:16;;;;;;;4.82;2.92;;;9.80;93.80;;;;;;5117088;28;20513;-78
2021/01/19 12:51:42;;;;;;;5.10;3.38;;;9.70;93.80;;;;;;5135486;28;20027;-80
2021/01/19 12:54:14;;;;;;;4.68;3.00;;;9.70;93.90;;;;;;5104421;28;20031;-80
2021/01/19 12:56:40;;;;;;;6.40;3.05;;;9.70;93.90;;;;;;5076990;28;20060;-79
2021/01/19 12:59:08;;;;;;;5.30;3.22;;;9.70;93.90;;;;;;5059081;28;20534;-80
2021/01/19 13:01:37;;;;;;;5.70;2.90;;;9.70;93.90;;;;;;5033429;28;20050;-83
2021/01/19 13:04:04;;;;;;;7.30;3.40;;;9.70;93.90;;;;;;4973615;28;20141;-78
2021/01/19 13:06:30;;;;;;;6.68;3.75;;;9.80;93.90;;;;;;4957456;28;20039;-76
2021/01/19 13:08:56;;;;;;;5.88;3.42;;;9.80;94.00;;;;;;4973036;28;20047;-76
2021/01/19 13:11:22;;;;;;;5.43;2.97;;;9.80;94.00;;;;;;4924939;28;20031;-78
2021/01/19 13:13:48;;;;;;;5.13;2.72;;;9.80;94.00;;;;;;4940632;28;20407;-76
2021/01/19 13:16:14;;;;;;;4.22;2.80;;;9.80;94.00;;;;;;4972713;28;20046;-76
2021/01/19 13:18:40;;;;;;;5.68;3.00;;;9.90;94.00;;;;;;4972562;28;20042;-76
2021/01/19 13:21:06;;;;;;;6.10;2.90;;;9.80;94.00;;;;;;4957877;28;20114;-78
2021/01/19 13:23:37;;;;;;;4.88;3.10;;;9.90;94.10;;;;;;4958668;28;20038;-80
2021/01/19 13:26:03;;;;;;;4.55;2.70;;;9.80;94.00;;;;;;4983395;28;20037;-78
2021/01/19 13:28:31;;;;;;;6.05;3.33;;;9.90;94.00;;;;;;5045584;28;20040;-80
2021/01/19 13:30:57;;;;;;;5.63;3.03;;;9.80;94.00;;;;;;5019320;28;20092;-79
2021/01/19 13:33:43;;;;;;;4.53;2.67;;;9.90;94.00;;;;;;5018414;28;20126;-83
2021/01/19 13:36:13;;;;;;;4.95;3.00;;;10.00;94.00;;;;;;5067754;28;20044;-82